Sapp, Missouri
Current Conditions -  °F | °C
As of 3:54 PM on Sunday 25 Jan 2015 (Local Time) from KCOU Reporting Station
Unknown Precip Unknown Precip  
Wind Chill: 24°   Ceiling: 1300
Heat Index: 36°   Visibility: 10mi
Dew Point: 35°   Wind: 24mph
Humidity: 97%   Direction: 350°N
Pressure: 29.82"   Gusts: 29mph
Location:  38.895°N, 92.3958°W
Report Text: KCOU 252154Z 35021G25KT 10SM UP BKN013 OVC020 02/02 A2982 RMK AO2 PK WND 35028/2110 RAE2055UPB2055E17B53 PRESRR SLP103 P0000 T00220017
Loading
Personal Weather Stations






























Interactive Weather Map New forecast layout! Learn more

10-Day Weather Forecast

Advertisements
Track Severe Weather on mobile